Airfield :
LOGIN :

Register | Disclaimer

   EN    FR    IT 

 










Legend :    VFR   Marginal VFR   IFR   Intensive IFR   Very Intensive IFR
Visi :
Ceiling :
>= 8 km
>= 3000ft
5 to 8 km
1000 to 3000 ft
1500m to 5 km
500 to 1000 ft
800 to 1500m
200 to 500 ft
< 800m
< 200 ft
Symbols :   Thunderstorms  Fog  Heavy snow  Heavy precipitations  Wind > 20 kt
SIGMETs :     Misc.  Thunderstorms  Icing  Turbulence  Mountain Waves  Volcanic Ashes






- Airport Elevation : 465 ft
- IATA code : LEJ


EDDP - Leipzig Halle

CURRENT METAR :
  • 080820Z AUTO 19007KT 9999 FEW042 02/M00 Q1007 NOSIG

EXPIRED METARs :
  • 080750Z AUTO 19006KT 9999 BKN035 02/M00 Q1007 NOSIG
  • 080720Z AUTO 20007KT 9999 SCT027 02/M00 Q1007 NOSIG
  • 080650Z AUTO 20007KT 9999 FEW023 02/M00 Q1007 NOSIG
  • 080620Z AUTO 21009KT 9999 SCT021 02/M00 Q1007 NOSIG
  • 080550Z AUTO 22009KT 9999 BKN023 02/00 Q1007 NOSIG
  • 080520Z AUTO 22010KT 9999 FEW022 02/M00 Q1007 NOSIG

TAF AMD TAF EDDP
Valid from the 08 at 07:00 until the 09 at 06:00 UTC


080703Z 0807/0906 22012KT 9999 BKN030
PROB40
TEMPO 0809/0816 4000 -SHRASN BKN012TCU
BECMG 0814/0817 23005KT
TEMPO 0820/0906 2000 BR BKN008
PROB40
TEMPO 0822/0906 1200 BR BKN003
BECMG 0901/0904 14005KT



MET'MAP, your aeronautical weather chart ! - Copyright ORBIFLY December 2007 - Disclaimer

ORBIFLY MET'MAP TEAM :

Programming & Development : Alexandra Zaïnal
Original concept : Baudouin d'Aumeries
Technical & hardware support : Manuel Goepfert
Assistance : Marc-Olivier Méhu




SOURCES & CREDITS :

   NOAA